Time;durP1;ratioP1;P1;durP2;ratioP2;P2;SDS_P1;SDS_P2;PMS_P1;PMS_P2;Temp;Humidity;BMP_temperature;BMP_pressure;BME280_temperature;BME280_humidity;BME280_pressure;Samples;Min_cycle;Max_cycle;Signal;HPM_P1;HPM_P2
2021/01/18 00:02:09;;;;;;;26.93;15.25;;;;;;;-9.68;65.70;98709.29;1804503;79;20960;-62
2021/01/18 00:04:37;;;;;;;24.75;15.78;;;;;;;-9.67;65.67;98704.55;1804406;79;21363;-61
2021/01/18 00:07:06;;;;;;;24.98;15.75;;;;;;;-9.67;65.68;98705.85;1799603;78;21027;-61
2021/01/18 00:09:34;;;;;;;24.92;13.78;;;;;;;-9.68;65.85;98702.80;1797870;79;20941;-61
2021/01/18 00:12:01;;;;;;;25.55;13.78;;;;;;;-9.68;65.70;98711.89;1797855;79;20897;-61
2021/01/18 00:14:30;;;;;;;26.17;14.40;;;;;;;-9.74;65.76;98701.39;1797950;79;20901;-62
2021/01/18 00:16:58;;;;;;;27.55;16.07;;;;;;;-9.78;65.95;98697.87;1797958;79;21199;-62
2021/01/18 00:19:25;;;;;;;30.88;16.60;;;;;;;-9.78;66.12;98702.20;1797925;79;21008;-62
2021/01/18 00:21:53;;;;;;;27.65;14.00;;;;;;;-9.78;66.12;98699.61;1798045;79;21306;-61
2021/01/18 00:24:20;;;;;;;24.63;14.20;;;;;;;-9.83;65.88;98695.63;1797833;79;20956;-61
2021/01/18 00:26:49;;;;;;;26.95;16.02;;;;;;;-9.88;65.92;98692.95;1797883;79;20976;-62
2021/01/18 00:29:17;;;;;;;28.12;14.87;;;;;;;-9.90;66.11;98692.06;1797975;79;22255;-62
2021/01/18 00:31:44;;;;;;;28.52;15.55;;;;;;;-9.90;66.10;98701.16;1797922;79;20917;-61
2021/01/18 00:34:13;;;;;;;25.72;13.72;;;;;;;-9.91;66.39;98703.30;1797972;79;21462;-60
2021/01/18 00:36:46;;;;;;;26.50;17.17;;;;;;;-9.94;66.34;98707.14;1797868;79;20905;-61
2021/01/18 00:39:13;;;;;;;28.45;15.98;;;;;;;-9.97;66.35;98705.79;1798083;79;20921;-61
2021/01/18 00:41:42;;;;;;;29.37;15.13;;;;;;;-9.94;66.58;98712.34;1797851;79;21311;-61
2021/01/18 00:44:10;;;;;;;24.23;13.90;;;;;;;-9.98;66.61;98709.22;1797913;79;21370;-61
2021/01/18 00:46:37;;;;;;;27.77;15.95;;;;;;;-9.97;66.58;98714.88;1797866;79;20996;-61
2021/01/18 00:49:05;;;;;;;30.57;15.10;;;;;;;-9.96;66.55;98711.45;1797879;79;21971;-62
2021/01/18 00:51:39;;;;;;;28.25;15.63;;;;;;;-10.02;66.22;98703.55;1797968;79;20906;-61
2021/01/18 00:54:08;;;;;;;31.37;16.75;;;;;;;-10.12;66.14;98706.41;1797923;79;21249;-61
2021/01/18 00:56:39;;;;;;;26.93;15.50;;;;;;;-10.05;66.48;98726.88;1797574;79;21027;-61
2021/01/18 00:59:10;;;;;;;29.23;17.00;;;;;;;-10.08;66.37;98717.28;1797799;79;21434;-61
2021/01/18 01:01:42;;;;;;;;;;;;;;;-10.03;66.69;98706.98;1799881;79;20913;-61
2021/01/18 01:04:11;;;;;;;20.75;13.35;;;;;;;-9.98;66.72;98714.42;1797902;79;20110;-61
2021/01/18 01:06:39;;;;;;;24.37;14.85;;;;;;;-10.00;66.25;98722.63;1804851;79;21379;-62
2021/01/18 01:09:06;;;;;;;22.48;13.43;;;;;;;-9.95;66.05;98720.97;1815441;79;21507;-62
2021/01/18 01:11:34;;;;;;;28.20;14.53;;;;;;;-9.92;65.93;98719.73;1815502;79;21334;-61
2021/01/18 01:14:02;;;;;;;27.48;13.35;;;;;;;-9.92;66.03;98708.03;1815417;79;20995;-62
2021/01/18 01:16:29;;;;;;;26.30;15.20;;;;;;;-9.91;65.97;98712.83;1815529;79;20925;-62
2021/01/18 01:18:57;;;;;;;26.85;14.65;;;;;;;-9.91;66.03;98709.80;1815436;79;21428;-61
2021/01/18 01:21:25;;;;;;;25.68;13.50;;;;;;;-9.92;65.85;98710.63;1815456;79;20999;-62
2021/01/18 01:23:52;;;;;;;32.20;16.23;;;;;;;-10.01;65.83;98707.87;1815415;79;20873;-61
2021/01/18 01:26:19;;;;;;;29.55;15.53;;;;;;;-10.00;65.90;98701.84;1815368;79;20972;-61
2021/01/18 01:28:48;;;;;;;32.00;16.10;;;;;;;-10.09;65.98;98701.67;1815441;79;20971;-63
2021/01/18 01:31:16;;;;;;;22.87;13.22;;;;;;;-10.10;66.26;98705.14;1815483;79;21334;-62
2021/01/18 01:33:44;;;;;;;29.12;15.48;;;;;;;-10.11;66.41;98702.94;1815411;79;20936;-62
2021/01/18 01:36:12;;;;;;;26.05;15.63;;;;;;;-10.14;66.44;98703.32;1815486;79;20916;-61
2021/01/18 01:38:39;;;;;;;29.67;16.10;;;;;;;-10.17;66.68;98705.03;1815357;78;21060;-61
2021/01/18 01:41:06;;;;;;;28.95;15.70;;;;;;;-10.19;67.02;98695.01;1815446;79;20920;-62
2021/01/18 01:43:35;;;;;;;29.95;17.10;;;;;;;-10.21;67.11;98703.20;1815471;78;21186;-61
2021/01/18 01:46:03;;;;;;;25.20;15.93;;;;;;;-10.19;67.37;98704.09;1815156;79;20936;-62
2021/01/18 01:48:31;;;;;;;30.12;15.88;;;;;;;-10.19;67.53;98708.00;1815414;79;20920;-61
2021/01/18 01:51:00;;;;;;;24.35;15.38;;;;;;;-10.15;67.63;98705.45;1815422;78;20924;-62
2021/01/18 01:53:30;;;;;;;30.40;15.78;;;;;;;-10.16;67.46;98695.50;1815467;79;20991;-62
2021/01/18 01:55:58;;;;;;;28.32;15.63;;;;;;;-10.13;67.16;98697.29;1815402;79;21405;-62
2021/01/18 01:58:27;;;;;;;24.92;14.43;;;;;;;-10.14;67.26;98700.72;1815357;79;21002;-62
2021/01/18 02:00:54;;;;;;;27.17;15.15;;;;;;;-10.19;66.93;98696.30;1815393;79;20968;-62
2021/01/18 02:03:42;;;;;;;31.17;18.23;;;;;;;-10.20;66.82;98704.97;1815357;79;20908;-62
2021/01/18 02:06:10;;;;;;;30.75;16.73;;;;;;;-10.20;67.06;98704.97;1815439;79;21322;-61
2021/01/18 02:08:38;;;;;;;31.17;15.15;;;;;;;-10.13;67.12;98708.98;1815385;79;21392;-62
2021/01/18 02:11:06;;;;;;;27.00;16.52;;;;;;;-10.13;67.25;98706.37;1815348;79;21011;-62
2021/01/18 02:14:09;;;;;;;29.18;14.70;;;;;;;-10.13;67.17;98707.68;1815397;79;20908;-61
2021/01/18 02:17:04;;;;;;;28.05;15.40;;;;;;;-10.18;66.96;98716.25;1815376;78;20928;-61
2021/01/18 02:20:13;;;;;;;26.40;14.58;;;;;;;-10.20;66.80;98712.77;1815378;79;20924;-61
2021/01/18 02:23:18;;;;;;;32.65;17.00;;;;;;;-10.30;66.65;98712.13;1815454;78;21192;-62
2021/01/18 02:25:58;;;;;;;22.93;14.10;;;;;;;-10.26;66.69;98721.73;1810731;79;21023;-61
2021/01/18 02:29:04;;;;;;;20.40;13.50;;;;;;;-10.23;66.88;98723.50;1786544;79;20988;-61
2021/01/18 02:32:14;;;;;;;31.82;15.40;;;;;;;-10.25;66.72;98727.36;1815452;79;21481;-61
2021/01/18 02:35:13;;;;;;;41.75;18.82;;;;;;;-10.28;66.63;98723.41;1815443;78;20932;-61
2021/01/18 02:38:14;;;;;;;31.82;16.23;;;;;;;-10.22;66.86;98737.81;1815395;79;21128;-61
2021/01/18 02:41:02;;;;;;;32.00;17.00;;;;;;;-10.20;67.08;98742.64;1815331;79;20920;-61
2021/01/18 02:43:37;;;;;;;35.17;17.45;;;;;;;-10.20;67.12;98735.24;1815368;79;20920;-61
2021/01/18 02:46:07;;;;;;;21.52;14.70;;;;;;;-10.18;66.95;98732.27;1815137;78;20987;-61
2021/01/18 02:48:35;;;;;;;31.73;16.05;;;;;;;-10.23;66.80;98733.48;1815406;79;20916;-61
2021/01/18 02:51:06;;;;;;;30.97;15.55;;;;;;;-10.20;66.80;98741.34;1815446;79;21434;-61
2021/01/18 02:53:33;;;;;;;25.75;14.90;;;;;;;-10.19;67.11;98741.77;1786953;79;20924;-61
2021/01/18 02:56:01;;;;;;;27.95;15.43;;;;;;;-10.23;67.15;98747.77;1815366;79;20873;-62
2021/01/18 02:58:28;;;;;;;29.15;15.63;;;;;;;-10.28;66.95;98737.70;1815318;79;20929;-62
2021/01/18 03:01:11;;;;;;;22.20;12.93;;;;;;;-10.29;67.07;98739.86;1815431;79;21003;-62
2021/01/18 03:03:53;;;;;;;31.80;16.82;;;;;;;-10.29;67.28;98736.40;1815216;79;21193;-61
2021/01/18 03:06:32;;;;;;;29.45;14.85;;;;;;;-10.31;67.57;98741.56;1815440;79;20920;-61
2021/01/18 03:09:04;;;;;;;28.45;14.18;;;;;;;-10.32;67.48;98737.20;1823101;78;20896;-61
2021/01/18 03:11:35;;;;;;;29.05;16.67;;;;;;;-10.29;67.53;98745.48;1822725;78;20884;-61
2021/01/18 03:14:10;;;;;;;32.03;17.90;;;;;;;-10.35;67.40;98741.07;1823323;78;21322;-61
2021/01/18 03:16:39;;;;;;;28.92;16.50;;;;;;;-10.32;67.51;98738.50;1823020;78;22277;-61
2021/01/18 03:19:07;;;;;;;29.35;15.63;;;;;;;-10.35;67.40;98730.69;1823056;78;20995;-61
2021/01/18 03:21:35;;;;;;;32.17;17.87;;;;;;;-10.33;67.26;98728.98;1823160;78;21384;-61
2021/01/18 03:24:03;;;;;;;34.65;20.37;;;;;;;-10.34;67.14;98732.45;1823100;78;20903;-61
2021/01/18 03:26:32;;;;;;;29.60;18.27;;;;;;;-10.29;67.42;98733.37;1823106;78;20880;-61
2021/01/18 03:28:59;;;;;;;32.28;16.50;;;;;;;-10.27;67.32;98726.47;1823132;78;21367;-61
2021/01/18 03:31:26;;;;;;;32.17;16.77;;;;;;;-10.28;67.23;98729.90;1823127;78;20983;-61
2021/01/18 03:33:54;;;;;;;29.85;14.50;;;;;;;-10.26;66.91;98732.12;1823173;78;20910;-61
2021/01/18 03:36:22;;;;;;;26.85;16.42;;;;;;;-10.30;66.61;98723.81;1823047;78;20900;-61
2021/01/18 03:38:50;;;;;;;31.48;16.57;;;;;;;-10.30;66.75;98729.00;1823172;78;20916;-61
2021/01/18 03:41:19;;;;;;;32.75;18.17;;;;;;;-10.30;66.93;98727.70;1823173;78;21194;-61
2021/01/18 03:43:46;;;;;;;29.23;16.30;;;;;;;-10.33;66.91;98734.17;1823043;78;21050;-62
2021/01/18 03:46:14;;;;;;;30.02;14.98;;;;;;;-10.36;66.92;98727.22;1823096;78;20901;-61
2021/01/18 03:48:43;;;;;;;24.50;15.28;;;;;;;-10.37;66.91;98733.69;1823101;78;20916;-61
2021/01/18 03:51:10;;;;;;;32.85;18.75;;;;;;;-10.38;67.14;98728.89;1823165;78;20912;-61
2021/01/18 03:53:37;;;;;;;27.35;16.32;;;;;;;-10.40;67.36;98729.73;1823126;78;21375;-61
2021/01/18 03:56:05;;;;;;;30.15;16.93;;;;;;;-10.41;67.26;98733.16;1823079;78;20931;-61
2021/01/18 03:58:33;;;;;;;28.55;15.55;;;;;;;-10.40;67.46;98732.33;1823094;78;21078;-61
2021/01/18 04:01:00;;;;;;;29.05;15.05;;;;;;;-10.38;67.50;98725.43;1823076;78;21460;-61
2021/01/18 04:03:28;;;;;;;32.65;18.02;;;;;;;-10.36;67.25;98731.52;1823201;78;20960;-61
2021/01/18 04:05:56;;;;;;;41.25;17.95;;;;;;;-10.36;67.23;98728.92;1823123;78;21351;-62
2021/01/18 04:08:25;;;;;;;31.82;17.85;;;;;;;-10.33;67.22;98730.72;1809592;78;20893;-62
2021/01/18 04:10:53;;;;;;;34.78;17.77;;;;;;;-10.33;67.20;98722.48;1804292;79;20877;-62
2021/01/18 04:13:22;;;;;;;27.35;17.30;;;;;;;-10.32;67.12;98722.09;1804475;79;21322;-62
2021/01/18 04:15:49;;;;;;;29.12;14.90;;;;;;;-10.33;67.01;98723.78;1804430;79;20988;-61
2021/01/18 04:18:18;;;;;;;30.55;17.17;;;;;;;-10.35;66.87;98728.09;1804268;79;21196;-63
2021/01/18 04:20:46;;;;;;;33.98;18.48;;;;;;;-10.36;66.71;98731.52;1804323;79;21008;-62
2021/01/18 04:23:13;;;;;;;35.92;15.43;;;;;;;-10.43;66.81;98727.07;1804420;79;20905;-62
2021/01/18 04:25:41;;;;;;;36.98;19.60;;;;;;;-10.43;66.99;98729.23;1804350;79;21924;-62
2021/01/18 04:28:09;;;;;;;36.90;18.85;;;;;;;-10.42;67.35;98721.02;1804440;79;20916;-62
2021/01/18 04:30:37;;;;;;;31.10;16.87;;;;;;;-10.38;67.38;98722.83;1804300;79;21362;-62
2021/01/18 04:33:07;;;;;;;35.40;19.23;;;;;;;-10.38;67.30;98713.74;1804334;79;21003;-62
2021/01/18 04:35:37;;;;;;;32.53;18.10;;;;;;;-10.40;67.14;98719.34;1804446;79;20921;-62
2021/01/18 04:38:05;;;;;;;36.88;19.05;;;;;;;-10.42;67.17;98714.12;1804429;78;20905;-62
2021/01/18 04:40:34;;;;;;;31.50;15.93;;;;;;;-10.41;67.29;98718.44;1804442;79;21346;-62
2021/01/18 04:43:02;;;;;;;38.73;19.42;;;;;;;-10.38;67.38;98722.40;1804372;79;21360;-62
2021/01/18 04:45:30;;;;;;;42.95;20.97;;;;;;;-10.42;66.93;98714.52;1804260;79;20976;-62
2021/01/18 04:47:59;;;;;;;38.10;19.50;;;;;;;-10.37;66.97;98722.00;1804378;79;20932;-62
2021/01/18 04:50:28;;;;;;;32.25;16.35;;;;;;;-10.37;67.06;98722.00;1804275;79;21067;-63
2021/01/18 04:53:10;;;;;;;34.55;16.65;;;;;;;-10.44;66.82;98726.61;1804396;79;20916;-62
2021/01/18 04:55:59;;;;;;;27.70;13.58;;;;;;;-10.45;66.85;98723.55;1804423;79;21371;-62
2021/01/18 04:58:29;;;;;;;34.83;19.40;;;;;;;-10.44;66.92;98734.39;1804330;79;20976;-63
2021/01/18 05:01:05;;;;;;;31.23;16.67;;;;;;;-10.44;67.09;98731.80;1804343;79;20996;-61
2021/01/18 05:03:36;;;;;;;39.18;20.45;;;;;;;-10.47;67.02;98730.44;1804469;79;21335;-61
2021/01/18 05:06:24;;;;;;;30.80;17.48;;;;;;;-10.46;66.92;98730.91;1804488;79;21291;-61
2021/01/18 05:09:28;;;;;;;34.45;18.67;;;;;;;-10.48;67.01;98737.36;1804253;79;21362;-61
2021/01/18 05:11:58;;;;;;;30.92;17.17;;;;;;;-10.49;67.06;98734.73;1804322;79;20999;-62
2021/01/18 05:14:26;;;;;;;35.20;18.62;;;;;;;-10.51;67.08;98736.41;1804324;79;21008;-61
2021/01/18 05:16:56;;;;;;;45.85;20.50;;;;;;;-10.50;67.16;98740.77;1804339;79;21489;-61
2021/01/18 05:19:26;;;;;;;50.92;23.05;;;;;;;-10.54;67.17;98747.19;1804369;79;20865;-61
2021/01/18 05:21:53;;;;;;;52.53;22.35;;;;;;;-10.55;67.43;98743.27;1804381;79;21353;-61
2021/01/18 05:24:21;;;;;;;59.60;26.10;;;;;;;-10.57;67.73;98744.53;1804285;79;21922;-61
2021/01/18 05:27:03;;;;;;;55.60;21.68;;;;;;;-10.57;68.12;98753.62;1804226;79;20968;-61
2021/01/18 05:29:36;;;;;;;62.00;27.62;;;;;;;-10.56;68.37;98755.38;1804385;79;20936;-61
2021/01/18 05:32:21;;;;;;;64.47;29.48;;;;;;;-10.55;68.66;98762.34;1804496;79;20900;-62
2021/01/18 05:35:14;;;;;;;59.93;24.73;;;;;;;-10.46;68.67;98760.77;1842360;78;26559;-62
2021/01/18 05:38:02;;;;;;;48.33;22.58;;;;;;;-10.47;68.57;98764.20;1817656;79;21004;-61
2021/01/18 05:40:35;;;;;;;49.03;24.35;;;;;;;-10.46;68.19;98760.77;1817558;79;21187;-61
2021/01/18 05:43:03;;;;;;;46.80;21.45;;;;;;;-10.46;68.03;98772.02;1817477;79;20945;-61
2021/01/18 05:45:37;;;;;;;43.68;21.77;;;;;;;-10.44;68.00;98760.36;1817605;79;21008;-61
2021/01/18 05:48:08;;;;;;;64.77;28.50;;;;;;;-10.48;67.76;98758.53;1817586;78;20921;-61
2021/01/18 05:50:37;;;;;;;42.78;19.75;;;;;;;-10.45;67.75;98765.09;1817532;79;20976;-61
2021/01/18 05:53:28;;;;;;;42.33;19.87;;;;;;;-10.46;67.71;98763.36;1817673;79;22366;-62
2021/01/18 05:56:17;;;;;;;45.10;23.60;;;;;;;-10.45;67.61;98750.81;1817297;79;21027;-63
2021/01/18 05:58:48;;;;;;;38.23;20.62;;;;;;;-10.46;67.65;98760.77;1817519;79;20949;-61
2021/01/18 06:01:39;;;;;;;37.20;18.55;;;;;;;-10.49;67.81;98758.97;1817549;79;20933;-61
2021/01/18 06:04:18;;;;;;;33.55;16.50;;;;;;;-10.45;67.88;98759.90;1817678;79;21338;-61
2021/01/18 06:06:57;;;;;;;34.25;18.45;;;;;;;-10.46;67.97;98760.77;1811029;79;21382;-62
2021/01/18 06:09:51;;;;;;;41.42;18.98;;;;;;;-10.46;67.93;98756.88;1817388;79;20952;-62
2021/01/18 06:12:27;;;;;;;42.38;20.02;;;;;;;-10.49;67.74;98760.70;1791370;79;21422;-62
2021/01/18 06:15:13;;;;;;;35.98;16.73;;;;;;;-10.50;67.92;98761.10;1817562;79;20910;-61
2021/01/18 06:17:45;;;;;;;35.08;16.62;;;;;;;-10.50;67.68;98762.40;1817537;79;20977;-61
2021/01/18 06:20:21;;;;;;;42.70;20.12;;;;;;;-10.52;67.61;98765.83;1817541;78;22191;-61
2021/01/18 06:22:52;;;;;;;47.78;22.30;;;;;;;-10.54;67.64;98761.47;1817426;79;20949;-62
2021/01/18 06:25:21;;;;;;;39.10;21.07;;;;;;;-10.50;67.76;98774.52;1817360;79;20989;-63
2021/01/18 06:27:48;;;;;;;38.75;19.87;;;;;;;-10.48;67.55;98767.63;1817446;79;21016;-61
2021/01/18 06:30:29;;;;;;;40.20;18.62;;;;;;;-10.52;67.26;98776.22;1817525;79;21036;-61
2021/01/18 06:32:59;;;;;;;49.33;21.73;;;;;;;-10.56;67.32;98776.16;1816655;79;21435;-61
2021/01/18 06:35:31;;;;;;;42.17;20.43;;;;;;;-10.54;67.44;98782.24;1787861;80;20979;-62
2021/01/18 06:38:01;;;;;;;37.80;18.95;;;;;;;-10.55;67.40;98775.32;1787490;80;21433;-62
2021/01/18 06:40:40;;;;;;;45.35;21.65;;;;;;;-10.52;67.60;98773.63;1787640;79;20963;-61
2021/01/18 06:43:10;;;;;;;37.48;19.73;;;;;;;-10.52;67.48;98779.68;1787750;80;21378;-61
2021/01/18 06:45:40;;;;;;;38.30;20.75;;;;;;;-10.51;67.38;98777.95;1786580;80;21374;-63
2021/01/18 06:48:09;;;;;;;38.55;18.48;;;;;;;-10.53;67.41;98780.55;1787020;80;20943;-61
2021/01/18 06:50:39;;;;;;;42.03;19.92;;;;;;;-10.52;67.28;98786.17;1786472;80;20995;-62
2021/01/18 06:53:15;;;;;;;35.60;17.87;;;;;;;-10.55;67.25;98782.21;1786872;80;21361;-62
2021/01/18 06:56:15;;;;;;;31.45;18.07;;;;;;;-10.60;67.41;98787.30;1787225;80;20880;-61
2021/01/18 06:59:26;;;;;;;41.68;19.65;;;;;;;-10.59;67.22;98790.80;1787170;80;21403;-62
2021/01/18 07:02:22;;;;;;;40.33;19.60;;;;;;;-10.58;67.35;98793.43;1787255;78;20935;-62
2021/01/18 07:04:51;;;;;;;37.30;16.95;;;;;;;-10.61;67.50;98795.95;1787283;80;21400;-61
2021/01/18 07:07:27;;;;;;;45.45;22.70;;;;;;;-10.69;67.60;98803.98;1786713;80;21018;-62
2021/01/18 07:09:59;;;;;;;39.13;20.23;;;;;;;-10.64;67.91;98806.27;1781632;79;20947;-62
2021/01/18 07:12:28;;;;;;;41.40;20.17;;;;;;;-10.59;67.81;98811.14;1756227;81;21204;-62
2021/01/18 07:14:59;;;;;;;36.60;16.90;;;;;;;-10.56;67.80;98812.50;1755977;81;21389;-62
2021/01/18 07:17:46;;;;;;;46.40;24.60;;;;;;;-10.51;67.58;98819.49;1756020;81;20952;-62
2021/01/18 07:20:28;;;;;;;29.98;17.30;;;;;;;-10.52;67.35;98819.06;1755688;81;20924;-64
2021/01/18 07:23:25;;;;;;;40.05;19.52;;;;;;;-10.50;67.46;98819.95;1754273;81;21030;-63
2021/01/18 07:26:39;;;;;;;40.48;21.50;;;;;;;-10.48;67.48;98816.56;1754878;81;21389;-62
2021/01/18 07:29:07;;;;;;;38.17;19.82;;;;;;;-10.44;67.43;98816.19;1756058;81;20944;-62
2021/01/18 07:31:36;;;;;;;46.50;21.73;;;;;;;-10.41;67.39;98813.23;1756110;81;20944;-62
2021/01/18 07:34:04;;;;;;;39.48;20.82;;;;;;;-10.35;67.35;98813.79;1762023;80;21477;-62
2021/01/18 07:36:32;;;;;;;42.95;21.75;;;;;;;-10.34;66.93;98819.45;1774035;81;21004;-62
2021/01/18 07:38:59;;;;;;;32.35;16.52;;;;;;;-10.26;67.10;98819.14;1773953;81;21383;-63
2021/01/18 07:41:35;;;;;;;40.15;19.25;;;;;;;-10.22;67.15;98815.74;1773993;81;20949;-62
2021/01/18 07:44:04;;;;;;;33.95;16.48;;;;;;;-10.17;66.99;98816.73;1774016;81;21012;-60
2021/01/18 07:46:35;;;;;;;40.08;21.20;;;;;;;-10.10;66.74;98827.25;1773980;79;20984;-62
2021/01/18 07:49:24;;;;;;;40.80;20.72;;;;;;;-10.10;66.10;98821.63;1774145;81;20925;-62
2021/01/18 07:52:15;;;;;;;33.02;18.65;;;;;;;-10.04;66.01;98824.74;1773972;81;21370;-61
2021/01/18 07:54:43;;;;;;;33.92;17.37;;;;;;;-9.98;65.93;98824.86;1773894;81;21000;-61
2021/01/18 07:57:32;;;;;;;42.45;21.90;;;;;;;-9.95;65.58;98818.86;1773949;80;21004;-66
2021/01/18 08:00:24;;;;;;;35.43;19.37;;;;;;;-9.92;65.44;98831.48;1773934;81;21000;-61
2021/01/18 08:02:59;;;;;;;36.25;18.92;;;;;;;-9.95;65.09;98835.32;1774029;81;20984;-60
2021/01/18 08:05:35;;;;;;;29.95;17.52;;;;;;;-9.98;65.33;98836.56;1761668;80;21424;-62
2021/01/18 08:08:13;;;;;;;45.58;20.48;;;;;;;-9.95;65.49;98832.72;1773941;81;20941;-61
2021/01/18 08:10:52;;;;;;;31.10;18.17;;;;;;;-9.93;65.63;98834.95;1773957;81;20928;-62
2021/01/18 08:13:55;;;;;;;38.23;19.07;;;;;;;-9.86;65.35;98838.10;1773807;80;20967;-61
2021/01/18 08:16:39;;;;;;;38.05;17.92;;;;;;;-9.85;64.63;98841.16;1774026;81;21370;-70
2021/01/18 08:19:23;;;;;;;36.42;16.70;;;;;;;-9.82;64.56;98834.73;1773968;81;21363;-62
2021/01/18 08:22:01;;;;;;;45.58;21.93;;;;;;;-9.85;63.39;98835.97;1774008;81;20944;-61
2021/01/18 08:24:38;;;;;;;46.92;23.80;;;;;;;-9.78;63.61;98842.58;1774071;81;21826;-61
2021/01/18 08:27:12;;;;;;;38.53;20.02;;;;;;;-9.79;63.37;98835.63;1773873;81;20948;-61
2021/01/18 08:29:52;;;;;;;43.80;22.75;;;;;;;-9.75;63.22;98842.64;1773897;81;21003;-62
2021/01/18 08:32:34;;;;;;;46.20;23.60;;;;;;;-9.72;63.49;98842.70;1774002;81;21255;-62
2021/01/18 08:35:21;;;;;;;36.00;18.87;;;;;;;-9.63;63.82;98854.14;1773925;80;20944;-62
2021/01/18 08:38:07;;;;;;;33.38;14.73;;;;;;;-9.57;63.74;98852.05;1773949;81;20996;-62
2021/01/18 08:40:44;;;;;;;34.27;17.02;;;;;;;-9.61;61.82;98854.60;1773945;81;20917;-62
2021/01/18 08:43:13;;;;;;;31.10;17.37;;;;;;;-9.67;61.74;98848.85;1774014;81;20972;-63
2021/01/18 08:45:53;;;;;;;33.55;17.75;;;;;;;-9.66;62.25;98852.78;1774224;81;23848;-62
2021/01/18 08:48:29;;;;;;;45.10;19.37;;;;;;;-9.66;62.46;98860.58;1773955;81;20984;-62
2021/01/18 08:51:05;;;;;;;29.92;15.53;;;;;;;-9.67;62.17;98867.92;1773760;81;20941;-61
2021/01/18 08:53:42;;;;;;;36.08;17.77;;;;;;;-9.68;61.61;98867.89;1773914;81;20992;-62
2021/01/18 08:56:29;;;;;;;32.85;16.55;;;;;;;-9.70;61.68;98873.06;1773999;81;20952;-63
2021/01/18 08:58:57;;;;;;;33.30;17.25;;;;;;;-9.70;61.01;98865.69;1773969;81;21211;-62
2021/01/18 09:01:30;;;;;;;30.05;15.70;;;;;;;-9.70;60.88;98876.09;1773891;81;20920;-62
2021/01/18 09:04:01;;;;;;;37.55;19.15;;;;;;;-9.71;60.89;98866.13;1773973;81;20940;-61
2021/01/18 09:06:29;;;;;;;30.15;17.75;;;;;;;-9.71;60.98;98878.23;1773891;81;21067;-62
2021/01/18 09:09:07;;;;;;;35.73;19.00;;;;;;;-9.71;60.55;98870.03;1773903;81;20937;-63
2021/01/18 09:11:37;;;;;;;37.20;18.80;;;;;;;-9.67;60.82;98875.72;1773973;81;21363;-62
2021/01/18 09:14:05;;;;;;;29.77;18.30;;;;;;;-9.58;61.01;98868.53;1773828;81;20937;-63
2021/01/18 09:16:32;;;;;;;39.70;17.95;;;;;;;-9.51;61.32;98861.70;1773940;81;20988;-62
2021/01/18 09:19:05;;;;;;;38.33;18.30;;;;;;;-9.45;60.79;98871.79;1773888;81;21012;-62
2021/01/18 09:21:35;;;;;;;33.42;16.93;;;;;;;-9.42;60.45;98868.81;1773890;81;20949;-61
2021/01/18 09:24:07;;;;;;;39.75;19.87;;;;;;;-9.38;60.84;98862.80;1773907;81;23619;-61
2021/01/18 09:26:35;;;;;;;35.38;20.00;;;;;;;-9.31;61.80;98860.77;1773856;81;20920;-61
2021/01/18 09:29:02;;;;;;;43.48;21.23;;;;;;;-9.23;62.13;98864.37;1773917;81;20988;-60
2021/01/18 09:31:31;;;;;;;48.58;21.93;;;;;;;-9.15;61.97;98847.16;1773907;81;21001;-60
2021/01/18 09:34:12;;;;;;;34.43;19.65;;;;;;;-9.01;62.08;98853.02;1773796;79;21019;-60
2021/01/18 09:36:43;;;;;;;32.75;18.48;;;;;;;-8.94;61.40;98841.83;1765226;81;21371;-63
2021/01/18 09:39:20;;;;;;;46.05;23.73;;;;;;;-8.81;61.42;98840.29;1765078;81;20941;-63
2021/01/18 09:41:51;;;;;;;41.95;23.47;;;;;;;-8.72;61.59;98840.03;1758877;81;21004;-62
2021/01/18 09:44:18;;;;;;;48.55;25.77;;;;;;;-8.60;61.42;98830.63;1765179;81;21592;-63
2021/01/18 09:46:47;;;;;;;52.10;25.12;;;;;;;-8.51;60.75;98837.68;1798198;78;20901;-62
2021/01/18 09:49:26;;;;;;;50.50;25.70;;;;;;;-8.42;60.68;98832.16;1820446;78;21136;-61
2021/01/18 09:51:56;;;;;;;43.38;22.52;;;;;;;-8.36;59.97;98827.44;1820441;78;20919;-61
2021/01/18 09:54:26;;;;;;;37.30;20.50;;;;;;;-8.31;59.83;98824.45;1805329;78;20914;-62
2021/01/18 09:56:54;;;;;;;46.35;22.87;;;;;;;-8.28;59.77;98823.63;1820499;78;21109;-62
2021/01/18 09:59:22;;;;;;;50.90;25.32;;;;;;;-8.27;59.54;98821.48;1820506;78;21036;-62
2021/01/18 10:01:51;;;;;;;47.27;26.23;;;;;;;-8.27;59.23;98821.05;1779540;78;21356;-62
2021/01/18 10:04:22;;;;;;;45.17;24.27;;;;;;;-8.24;60.04;98828.05;1820486;78;20971;-61
2021/01/18 10:06:51;;;;;;;43.38;22.45;;;;;;;-8.19;59.78;98830.27;1820325;78;20986;-62
2021/01/18 10:09:21;;;;;;;32.50;17.37;;;;;;;-8.12;59.58;98824.25;1820452;78;20988;-63
2021/01/18 10:11:49;;;;;;;36.68;19.40;;;;;;;-8.10;59.17;98825.58;1820646;78;20971;-62
2021/01/18 10:14:23;;;;;;;41.95;21.85;;;;;;;-8.08;58.54;98821.28;1820452;78;21070;-62
2021/01/18 10:17:05;;;;;;;36.03;20.77;;;;;;;-8.07;58.81;98818.69;1820364;78;21002;-63
2021/01/18 10:19:38;;;;;;;33.88;19.50;;;;;;;-8.08;58.05;98818.23;1820695;78;21365;-62
2021/01/18 10:22:15;;;;;;;34.90;20.50;;;;;;;-8.08;57.67;98816.93;1820752;78;20920;-62
2021/01/18 10:24:54;;;;;;;36.73;18.30;;;;;;;-8.09;57.03;98811.70;1820807;78;20963;-63
2021/01/18 10:27:26;;;;;;;31.27;16.90;;;;;;;-8.11;56.96;98823.41;1806267;78;21353;-62
2021/01/18 10:30:14;;;;;;;39.05;20.82;;;;;;;-8.11;56.70;98819.50;1820383;78;20954;-62
2021/01/18 10:32:45;;;;;;;26.93;14.73;;;;;;;-8.18;56.74;98817.26;1820686;78;20888;-61
2021/01/18 10:35:31;;;;;;;35.83;18.48;;;;;;;-8.20;56.74;98812.87;1831848;76;20985;-62
2021/01/18 10:38:21;;;;;;;35.75;18.75;;;;;;;-8.24;56.14;98811.10;1848302;77;21390;-61
2021/01/18 10:41:08;;;;;;;31.77;18.40;;;;;;;-8.27;56.40;98810.63;1779026;80;21371;-61
2021/01/18 10:43:37;;;;;;;40.55;20.82;;;;;;;-8.24;56.75;98805.89;1845746;77;20893;-62
2021/01/18 10:46:13;;;;;;;32.35;16.27;;;;;;;-8.24;56.93;98800.67;1776280;80;20913;-61
2021/01/18 10:48:41;;;;;;;28.75;15.08;;;;;;;-8.28;56.48;98801.05;1848249;77;21398;-62
2021/01/18 10:51:08;;;;;;;36.28;20.17;;;;;;;-8.27;56.07;98803.24;1776184;80;20934;-62
2021/01/18 10:53:36;;;;;;;38.92;20.48;;;;;;;-8.26;56.52;98804.97;1776183;80;21248;-61
2021/01/18 10:56:15;;;;;;;35.38;18.62;;;;;;;-8.22;56.66;98805.03;1848051;77;20913;-61
2021/01/18 10:58:55;;;;;;;37.08;20.62;;;;;;;-8.18;56.84;98798.15;1776180;80;21004;-61
2021/01/18 11:01:24;;;;;;;35.95;19.05;;;;;;;-8.14;55.95;98799.91;1843507;77;20905;-61
2021/01/18 11:03:51;;;;;;;38.53;20.17;;;;;;;-8.06;56.37;98795.66;1776251;80;20988;-61
2021/01/18 11:06:22;;;;;;;37.78;19.60;;;;;;;-8.01;56.24;98805.73;1848050;77;21225;-61
2021/01/18 11:08:52;;;;;;;39.90;21.15;;;;;;;-7.95;56.21;98802.73;1776264;80;21000;-61
2021/01/18 11:11:25;;;;;;;35.60;18.32;;;;;;;-7.91;56.24;98803.23;1776218;80;20992;-61
2021/01/18 11:14:02;;;;;;;;;;;;;;;-7.89;56.67;98801.50;1778761;80;21186;-61
2021/01/18 11:16:30;;;;;;;36.20;19.35;;;;;;;-7.92;56.08;98797.56;1783533;80;20409;-61
2021/01/18 11:19:04;;;;;;;32.40;19.80;;;;;;;-7.92;56.35;98805.37;1776095;80;21333;-61
2021/01/18 11:21:32;;;;;;;49.00;24.18;;;;;;;-7.96;56.58;98807.50;1848101;77;20940;-63
2021/01/18 11:24:01;;;;;;;44.88;22.65;;;;;;;-7.97;56.83;98802.72;1848126;77;20999;-62
2021/01/18 11:26:28;;;;;;;44.27;22.87;;;;;;;-7.95;56.86;98800.12;1847990;77;20913;-62
2021/01/18 11:28:57;;;;;;;37.50;19.92;;;;;;;-7.92;56.63;98794.95;1776180;80;21016;-62
2021/01/18 11:31:26;;;;;;;42.13;22.25;;;;;;;-7.91;56.36;98793.66;1776214;80;22293;-62
2021/01/18 11:33:53;;;;;;;29.92;17.00;;;;;;;-7.85;56.59;98790.23;1847960;77;20980;-62
2021/01/18 11:36:24;;;;;;;33.33;19.12;;;;;;;-7.85;56.26;98791.13;1775969;80;20984;-61
2021/01/18 11:38:53;;;;;;;39.55;19.23;;;;;;;-7.85;56.54;98791.53;1848192;77;20995;-61
2021/01/18 11:41:22;;;;;;;36.77;20.72;;;;;;;-7.90;56.24;98786.70;1776189;80;20980;-62
2021/01/18 11:43:49;;;;;;;43.17;24.12;;;;;;;-7.92;56.40;98790.60;1848065;77;21359;-63
2021/01/18 11:46:19;;;;;;;44.23;23.05;;;;;;;-7.90;56.67;98784.09;1848083;77;21008;-62